sensor_id;sensor_type;location;lat;lon;timestamp;pressure;altitude;pressure_sealevel;temperature;humidity
36222;BME280;22266;52.340;4.962;2023-06-26T00:01:00;101153.16;;;26.57;49.56
36222;BME280;22266;52.340;4.962;2023-06-26T00:03:27;101151.22;;;26.57;49.43
36222;BME280;22266;52.340;4.962;2023-06-26T00:05:55;101145.16;;;26.55;49.51
36222;BME280;22266;52.340;4.962;2023-06-26T00:08:27;101149.88;;;26.55;49.64
36222;BME280;22266;52.340;4.962;2023-06-26T00:10:54;101143.53;;;26.54;49.77
36222;BME280;22266;52.340;4.962;2023-06-26T00:13:22;101138.28;;;26.53;50.00
36222;BME280;22266;52.340;4.962;2023-06-26T00:15:48;101135.03;;;26.51;49.88
36222;BME280;22266;52.340;4.962;2023-06-26T00:18:15;101135.59;;;26.48;49.41
36222;BME280;22266;52.340;4.962;2023-06-26T00:20:41;101133.16;;;26.46;49.12
36222;BME280;22266;52.340;4.962;2023-06-26T00:23:07;101137.25;;;26.44;49.35
36222;BME280;22266;52.340;4.962;2023-06-26T00:25:34;101131.22;;;26.42;49.70
36222;BME280;22266;52.340;4.962;2023-06-26T00:28:01;101133.16;;;26.41;49.97
36222;BME280;22266;52.340;4.962;2023-06-26T00:30:29;101147.56;;;26.38;49.74
36222;BME280;22266;52.340;4.962;2023-06-26T00:32:56;101146.75;;;26.37;50.02
36222;BME280;22266;52.340;4.962;2023-06-26T00:35:23;101151.19;;;26.33;49.89
36222;BME280;22266;52.340;4.962;2023-06-26T00:37:50;101153.72;;;26.30;49.50
36222;BME280;22266;52.340;4.962;2023-06-26T00:40:16;101146.31;;;26.25;48.75
36222;BME280;22266;52.340;4.962;2023-06-26T00:42:43;101156.06;;;26.18;47.64
36222;BME280;22266;52.340;4.962;2023-06-26T00:45:09;101157.19;;;26.11;46.92
36222;BME280;22266;52.340;4.962;2023-06-26T00:47:37;101163.03;;;26.05;47.36
36222;BME280;22266;52.340;4.962;2023-06-26T00:50:04;101166.41;;;26.02;47.54
36222;BME280;22266;52.340;4.962;2023-06-26T00:52:31;101164.09;;;25.80;47.68
36222;BME280;22266;52.340;4.962;2023-06-26T00:54:58;101165.25;;;25.74;48.39
36222;BME280;22266;52.340;4.962;2023-06-26T00:57:26;101157.53;;;25.71;48.50
36222;BME280;22266;52.340;4.962;2023-06-26T00:59:53;101166.38;;;25.68;48.96
36222;BME280;22266;52.340;4.962;2023-06-26T01:02:20;101164.47;;;25.63;49.03
36222;BME280;22266;52.340;4.962;2023-06-26T01:04:49;101176.13;;;25.55;49.25
36222;BME280;22266;52.340;4.962;2023-06-26T01:07:18;101180.31;;;25.47;49.87
36222;BME280;22266;52.340;4.962;2023-06-26T01:09:47;101171.25;;;25.42;50.39
36222;BME280;22266;52.340;4.962;2023-06-26T01:12:15;101169.38;;;25.37;50.17
36222;BME280;22266;52.340;4.962;2023-06-26T01:14:42;101176.25;;;25.34;50.25
36222;BME280;22266;52.340;4.962;2023-06-26T01:17:09;101177.41;;;25.28;50.58
36222;BME280;22266;52.340;4.962;2023-06-26T01:19:44;101174.97;;;25.22;50.69
36222;BME280;22266;52.340;4.962;2023-06-26T01:22:25;101176.38;;;25.14;51.18
36222;BME280;22266;52.340;4.962;2023-06-26T01:27:48;101181.63;;;25.05;51.34
36222;BME280;22266;52.340;4.962;2023-06-26T01:30:16;101172.28;;;25.01;51.54
36222;BME280;22266;52.340;4.962;2023-06-26T01:32:44;101178.69;;;24.91;51.69
36222;BME280;22266;52.340;4.962;2023-06-26T01:35:12;101178.44;;;24.78;52.18
36222;BME280;22266;52.340;4.962;2023-06-26T01:37:39;101167.97;;;24.75;52.28
36222;BME280;22266;52.340;4.962;2023-06-26T01:40:07;101166.91;;;24.71;52.59
36222;BME280;22266;52.340;4.962;2023-06-26T01:42:34;101169.16;;;24.63;52.91
36222;BME280;22266;52.340;4.962;2023-06-26T01:45:12;101170.22;;;24.62;53.15
36222;BME280;22266;52.340;4.962;2023-06-26T01:47:44;101166.38;;;24.58;53.12
36222;BME280;22266;52.340;4.962;2023-06-26T01:50:18;101168.31;;;24.58;53.36
36222;BME280;22266;52.340;4.962;2023-06-26T01:53:02;101191.75;;;24.55;53.65
36222;BME280;22266;52.340;4.962;2023-06-26T01:55:50;101198.34;;;24.49;53.74
36222;BME280;22266;52.340;4.962;2023-06-26T01:58:19;101184.84;;;24.37;53.95
36222;BME280;22266;52.340;4.962;2023-06-26T02:00:48;101191.75;;;24.35;53.98
36222;BME280;22266;52.340;4.962;2023-06-26T02:03:15;101188.19;;;24.24;54.14
36222;BME280;22266;52.340;4.962;2023-06-26T02:05:41;101188.19;;;24.19;54.50
36222;BME280;22266;52.340;4.962;2023-06-26T02:08:08;101189.28;;;24.18;54.66
36222;BME280;22266;52.340;4.962;2023-06-26T02:10:35;101193.16;;;24.12;54.83
36222;BME280;22266;52.340;4.962;2023-06-26T02:13:02;101181.31;;;24.06;54.96
36222;BME280;22266;52.340;4.962;2023-06-26T02:15:29;101176.09;;;24.05;55.07
36222;BME280;22266;52.340;4.962;2023-06-26T02:17:55;101189.56;;;24.06;55.00
36222;BME280;22266;52.340;4.962;2023-06-26T02:20:23;101185.47;;;24.04;55.34
36222;BME280;22266;52.340;4.962;2023-06-26T02:22:49;101200.31;;;24.03;55.20
36222;BME280;22266;52.340;4.962;2023-06-26T02:25:17;101198.38;;;24.03;55.25
36222;BME280;22266;52.340;4.962;2023-06-26T02:27:44;101205.78;;;23.98;55.36
36222;BME280;22266;52.340;4.962;2023-06-26T02:30:11;101197.25;;;23.94;55.48
36222;BME280;22266;52.340;4.962;2023-06-26T02:32:37;101206.63;;;23.88;55.58
36222;BME280;22266;52.340;4.962;2023-06-26T02:35:05;101193.41;;;23.85;55.58
36222;BME280;22266;52.340;4.962;2023-06-26T02:37:31;101195.06;;;23.81;55.67
36222;BME280;22266;52.340;4.962;2023-06-26T02:39:58;101202.22;;;23.77;55.65
36222;BME280;22266;52.340;4.962;2023-06-26T02:42:25;101198.38;;;23.67;55.59
36222;BME280;22266;52.340;4.962;2023-06-26T02:44:51;101194.19;;;23.60;56.25
36222;BME280;22266;52.340;4.962;2023-06-26T02:47:18;101205.72;;;23.52;56.20
36222;BME280;22266;52.340;4.962;2023-06-26T02:49:45;101207.66;;;23.51;56.39
36222;BME280;22266;52.340;4.962;2023-06-26T02:52:11;101198.59;;;23.51;56.49
36222;BME280;22266;52.340;4.962;2023-06-26T02:54:38;101208.19;;;23.53;56.78
36222;BME280;22266;52.340;4.962;2023-06-26T02:57:05;101206.84;;;23.56;56.62
36222;BME280;22266;52.340;4.962;2023-06-26T02:59:32;101218.66;;;23.51;56.49
36222;BME280;22266;52.340;4.962;2023-06-26T03:01:59;101209.00;;;23.43;56.90
36222;BME280;22266;52.340;4.962;2023-06-26T03:04:34;101211.75;;;23.43;56.98
36222;BME280;22266;52.340;4.962;2023-06-26T03:07:04;101220.28;;;23.42;56.95
36222;BME280;22266;52.340;4.962;2023-06-26T03:09:31;101214.78;;;23.42;56.97
36222;BME280;22266;52.340;4.962;2023-06-26T03:11:57;101223.56;;;23.39;56.88
36222;BME280;22266;52.340;4.962;2023-06-26T03:14:24;101226.03;;;23.35;56.97
36222;BME280;22266;52.340;4.962;2023-06-26T03:16:50;101219.97;;;23.33;57.12
36222;BME280;22266;52.340;4.962;2023-06-26T03:19:19;101233.97;;;23.32;56.92
36222;BME280;22266;52.340;4.962;2023-06-26T03:22:09;101249.34;;;23.28;57.11
36222;BME280;22266;52.340;4.962;2023-06-26T03:24:35;101254.84;;;23.28;57.28
36222;BME280;22266;52.340;4.962;2023-06-26T03:27:02;101259.22;;;23.24;57.21
36222;BME280;22266;52.340;4.962;2023-06-26T03:29:29;101245.47;;;23.24;57.27
36222;BME280;22266;52.340;4.962;2023-06-26T03:31:56;101248.22;;;23.24;57.21
36222;BME280;22266;52.340;4.962;2023-06-26T03:34:23;101248.75;;;23.20;57.07
36222;BME280;22266;52.340;4.962;2023-06-26T03:36:49;101253.13;;;23.16;57.24
36222;BME280;22266;52.340;4.962;2023-06-26T03:39:16;101252.59;;;23.14;56.98
36222;BME280;22266;52.340;4.962;2023-06-26T03:41:43;101254.53;;;23.14;56.79
36222;BME280;22266;52.340;4.962;2023-06-26T03:44:09;101252.59;;;23.14;56.88
36222;BME280;22266;52.340;4.962;2023-06-26T03:46:43;101257.00;;;23.15;56.54
36222;BME280;22266;52.340;4.962;2023-06-26T03:49:10;101264.41;;;23.15;56.28
36222;BME280;22266;52.340;4.962;2023-06-26T03:51:37;101268.22;;;23.09;56.29
36222;BME280;22266;52.340;4.962;2023-06-26T03:54:04;101275.06;;;23.06;56.71
36222;BME280;22266;52.340;4.962;2023-06-26T03:56:30;101278.94;;;23.05;56.48
36222;BME280;22266;52.340;4.962;2023-06-26T03:58:57;101267.94;;;23.05;56.49
36222;BME280;22266;52.340;4.962;2023-06-26T04:01:25;101269.00;;;23.04;56.44
36222;BME280;22266;52.340;4.962;2023-06-26T04:03:52;101269.00;;;23.04;56.29
36222;BME280;22266;52.340;4.962;2023-06-26T04:06:18;101277.81;;;23.01;56.32
36222;BME280;22266;52.340;4.962;2023-06-26T04:08:45;101283.53;;;23.00;56.42
36222;BME280;22266;52.340;4.962;2023-06-26T04:11:11;101295.34;;;22.95;56.18
36222;BME280;22266;52.340;4.962;2023-06-26T04:13:38;101301.66;;;22.95;56.31
36222;BME280;22266;52.340;4.962;2023-06-26T04:16:04;101300.00;;;22.94;56.06
36222;BME280;22266;52.340;4.962;2023-06-26T04:18:32;101315.34;;;22.90;56.25
36222;BME280;22266;52.340;4.962;2023-06-26T04:21:12;101321.91;;;22.89;56.60
36222;BME280;22266;52.340;4.962;2023-06-26T04:23:40;101317.75;;;22.87;56.42
36222;BME280;22266;52.340;4.962;2023-06-26T04:26:08;101322.13;;;22.83;56.62
36222;BME280;22266;52.340;4.962;2023-06-26T04:28:37;101324.28;;;22.76;56.84
36222;BME280;22266;52.340;4.962;2023-06-26T04:31:04;101329.22;;;22.74;57.15
36222;BME280;22266;52.340;4.962;2023-06-26T04:33:31;101331.69;;;22.75;56.84
36222;BME280;22266;52.340;4.962;2023-06-26T04:35:58;101334.41;;;22.70;57.00
36222;BME280;22266;52.340;4.962;2023-06-26T04:38:27;101338.47;;;22.67;57.17
36222;BME280;22266;52.340;4.962;2023-06-26T04:40:54;101343.16;;;22.67;57.26
36222;BME280;22266;52.340;4.962;2023-06-26T04:43:20;101340.97;;;22.69;57.12
36222;BME280;22266;52.340;4.962;2023-06-26T04:45:47;101342.09;;;22.73;56.79
36222;BME280;22266;52.340;4.962;2023-06-26T04:48:14;101345.41;;;22.75;56.68
36222;BME280;22266;52.340;4.962;2023-06-26T04:50:40;101342.09;;;22.73;56.60
36222;BME280;22266;52.340;4.962;2023-06-26T04:53:07;101353.84;;;22.68;56.78
36222;BME280;22266;52.340;4.962;2023-06-26T04:55:34;101349.97;;;22.64;56.41
36222;BME280;22266;52.340;4.962;2023-06-26T04:58:04;101348.63;;;22.67;56.38
36222;BME280;22266;52.340;4.962;2023-06-26T05:00:31;101353.59;;;22.70;56.24
36222;BME280;22266;52.340;4.962;2023-06-26T05:02:58;101353.09;;;22.73;56.07
36222;BME280;22266;52.340;4.962;2023-06-26T05:05:27;101359.41;;;22.74;56.37
36222;BME280;22266;52.340;4.962;2023-06-26T05:07:55;101354.72;;;22.74;56.24
36222;BME280;22266;52.340;4.962;2023-06-26T05:10:22;101356.66;;;22.74;55.88
36222;BME280;22266;52.340;4.962;2023-06-26T05:12:49;101354.44;;;22.70;56.01
36222;BME280;22266;52.340;4.962;2023-06-26T05:15:15;101355.78;;;22.68;56.13
36222;BME280;22266;52.340;4.962;2023-06-26T05:17:42;101371.66;;;22.61;56.08
36222;BME280;22266;52.340;4.962;2023-06-26T05:20:09;101374.91;;;22.58;56.26
36222;BME280;22266;52.340;4.962;2023-06-26T05:22:37;101365.25;;;22.50;56.46
36222;BME280;22266;52.340;4.962;2023-06-26T05:25:06;101371.56;;;22.51;56.52
36222;BME280;22266;52.340;4.962;2023-06-26T05:27:35;101383.34;;;22.51;56.42
36222;BME280;22266;52.340;4.962;2023-06-26T05:30:02;101380.59;;;22.51;56.60
36222;BME280;22266;52.340;4.962;2023-06-26T05:32:30;101382.56;;;22.56;56.62
36222;BME280;22266;52.340;4.962;2023-06-26T05:35:01;101389.19;;;22.60;56.10
36222;BME280;22266;52.340;4.962;2023-06-26T05:37:29;101391.72;;;22.66;56.17
36222;BME280;22266;52.340;4.962;2023-06-26T05:39:57;101392.91;;;22.81;55.53
36222;BME280;22266;52.340;4.962;2023-06-26T05:42:23;101397.50;;;22.97;55.28
36222;BME280;22266;52.340;4.962;2023-06-26T05:44:50;101410.25;;;23.13;54.96
36222;BME280;22266;52.340;4.962;2023-06-26T05:47:17;101414.13;;;23.23;54.67
36222;BME280;22266;52.340;4.962;2023-06-26T05:49:43;101419.97;;;23.31;54.23
36222;BME280;22266;52.340;4.962;2023-06-26T05:52:10;101420.47;;;23.28;53.74
36222;BME280;22266;52.340;4.962;2023-06-26T05:54:37;101424.53;;;23.15;54.54
36222;BME280;22266;52.340;4.962;2023-06-26T05:57:04;101436.81;;;23.08;54.67
36222;BME280;22266;52.340;4.962;2023-06-26T05:59:32;101432.09;;;22.98;54.71
36222;BME280;22266;52.340;4.962;2023-06-26T06:01:58;101427.13;;;22.95;55.18
36222;BME280;22266;52.340;4.962;2023-06-26T06:04:25;101434.81;;;22.93;55.17
36222;BME280;22266;52.340;4.962;2023-06-26T06:06:51;101446.22;;;22.85;55.61
36222;BME280;22266;52.340;4.962;2023-06-26T06:09:18;101439.66;;;22.86;55.72
36222;BME280;22266;52.340;4.962;2023-06-26T06:11:44;101442.63;;;22.84;55.85
36222;BME280;22266;52.340;4.962;2023-06-26T06:14:11;101446.97;;;22.75;55.85
36222;BME280;22266;52.340;4.962;2023-06-26T06:16:37;101440.69;;;22.80;56.10
36222;BME280;22266;52.340;4.962;2023-06-26T06:19:04;101438.03;;;22.90;56.19
36222;BME280;22266;52.340;4.962;2023-06-26T06:21:33;101450.41;;;22.92;56.43
36222;BME280;22266;52.340;4.962;2023-06-26T06:23:59;101460.00;;;22.90;56.14
36222;BME280;22266;52.340;4.962;2023-06-26T06:26:27;101470.97;;;22.90;56.19
36222;BME280;22266;52.340;4.962;2023-06-26T06:28:54;101477.78;;;22.82;56.39
36222;BME280;22266;52.340;4.962;2023-06-26T06:31:20;101481.63;;;22.81;56.22
36222;BME280;22266;52.340;4.962;2023-06-26T06:33:46;101486.72;;;22.73;56.24
36222;BME280;22266;52.340;4.962;2023-06-26T06:36:13;101486.94;;;22.66;56.57
36222;BME280;22266;52.340;4.962;2023-06-26T06:38:43;101491.53;;;22.60;56.96
36222;BME280;22266;52.340;4.962;2023-06-26T06:41:10;101489.38;;;22.62;56.99
36222;BME280;22266;52.340;4.962;2023-06-26T06:43:36;101487.97;;;22.60;56.81
36222;BME280;22266;52.340;4.962;2023-06-26T06:46:03;101496.66;;;22.52;56.51
36222;BME280;22266;52.340;4.962;2023-06-26T06:48:31;101496.34;;;22.48;56.93
36222;BME280;22266;52.340;4.962;2023-06-26T06:50:57;101501.59;;;22.50;57.12
36222;BME280;22266;52.340;4.962;2023-06-26T06:53:24;101504.66;;;22.53;57.23
36222;BME280;22266;52.340;4.962;2023-06-26T06:55:50;101506.63;;;22.58;56.88
36222;BME280;22266;52.340;4.962;2023-06-26T06:58:17;101515.16;;;22.61;56.57
36222;BME280;22266;52.340;4.962;2023-06-26T07:00:45;101517.84;;;22.56;56.80
36222;BME280;22266;52.340;4.962;2023-06-26T07:03:12;101521.13;;;22.53;56.89
36222;BME280;22266;52.340;4.962;2023-06-26T07:05:38;101522.19;;;22.52;56.96
36222;BME280;22266;52.340;4.962;2023-06-26T07:08:05;101521.16;;;22.58;56.81
36222;BME280;22266;52.340;4.962;2023-06-26T07:10:31;101520.97;;;22.65;56.64
36222;BME280;22266;52.340;4.962;2023-06-26T07:12:58;101525.09;;;22.67;56.60
36222;BME280;22266;52.340;4.962;2023-06-26T07:15:24;101529.75;;;22.67;56.63
36222;BME280;22266;52.340;4.962;2023-06-26T07:17:53;101525.94;;;22.68;56.49
36222;BME280;22266;52.340;4.962;2023-06-26T07:20:19;101524.91;;;22.74;56.04
36222;BME280;22266;52.340;4.962;2023-06-26T07:22:46;101530.41;;;22.74;55.42
36222;BME280;22266;52.340;4.962;2023-06-26T07:25:13;101525.06;;;22.62;55.49
36222;BME280;22266;52.340;4.962;2023-06-26T07:27:40;101534.88;;;22.58;55.68
36222;BME280;22266;52.340;4.962;2023-06-26T07:30:08;101538.19;;;22.60;55.63
36222;BME280;22266;52.340;4.962;2023-06-26T07:32:38;101553.00;;;22.59;55.92
36222;BME280;22266;52.340;4.962;2023-06-26T07:35:05;101553.28;;;22.58;55.23
36222;BME280;22266;52.340;4.962;2023-06-26T07:37:31;101550.75;;;22.56;54.85
36222;BME280;22266;52.340;4.962;2023-06-26T07:39:58;101557.34;;;22.55;55.17
36222;BME280;22266;52.340;4.962;2023-06-26T07:42:24;101563.94;;;22.54;55.35
36222;BME280;22266;52.340;4.962;2023-06-26T07:44:51;101565.97;;;22.42;55.19
36222;BME280;22266;52.340;4.962;2023-06-26T07:47:17;101567.31;;;22.39;55.45
36222;BME280;22266;52.340;4.962;2023-06-26T07:49:44;101565.97;;;22.42;55.42
36222;BME280;22266;52.340;4.962;2023-06-26T07:52:11;101566.84;;;22.48;55.19
36222;BME280;22266;52.340;4.962;2023-06-26T07:54:37;101577.91;;;22.53;54.72
36222;BME280;22266;52.340;4.962;2023-06-26T07:57:05;101584.28;;;22.58;54.61
36222;BME280;22266;52.340;4.962;2023-06-26T07:59:35;101583.31;;;22.48;54.81
36222;BME280;22266;52.340;4.962;2023-06-26T08:02:02;101586.78;;;22.38;54.86
36222;BME280;22266;52.340;4.962;2023-06-26T08:04:30;101584.97;;;22.27;54.63
36222;BME280;22266;52.340;4.962;2023-06-26T08:06:59;101587.91;;;22.20;54.55
36222;BME280;22266;52.340;4.962;2023-06-26T08:09:28;101589.81;;;22.19;54.58
36222;BME280;22266;52.340;4.962;2023-06-26T08:11:55;101600.06;;;22.24;54.54
36222;BME280;22266;52.340;4.962;2023-06-26T08:14:22;101594.34;;;22.31;54.29
36222;BME280;22266;52.340;4.962;2023-06-26T08:16:48;101602.69;;;22.19;54.29
36222;BME280;22266;52.340;4.962;2023-06-26T08:19:16;101601.88;;;22.18;54.45
36222;BME280;22266;52.340;4.962;2023-06-26T08:21:44;101594.81;;;22.23;54.60
36222;BME280;22266;52.340;4.962;2023-06-26T08:24:12;101600.94;;;22.30;54.36
36222;BME280;22266;52.340;4.962;2023-06-26T08:26:39;101609.50;;;22.33;54.21
36222;BME280;22266;52.340;4.962;2023-06-26T08:29:06;101607.50;;;22.29;53.96
36222;BME280;22266;52.340;4.962;2023-06-26T08:31:38;101605.78;;;22.23;53.86
36222;BME280;22266;52.340;4.962;2023-06-26T08:34:07;101605.44;;;22.19;54.31
36222;BME280;22266;52.340;4.962;2023-06-26T08:36:33;101608.78;;;22.21;54.48
36222;BME280;22266;52.340;4.962;2023-06-26T08:39:00;101612.91;;;22.24;53.69
36222;BME280;22266;52.340;4.962;2023-06-26T08:41:27;101619.47;;;22.23;53.40
36222;BME280;22266;52.340;4.962;2023-06-26T08:43:53;101612.09;;;22.23;53.76
36222;BME280;22266;52.340;4.962;2023-06-26T08:46:20;101626.94;;;22.27;53.74
36222;BME280;22266;52.340;4.962;2023-06-26T08:48:55;101620.63;;;22.27;53.82
36222;BME280;22266;52.340;4.962;2023-06-26T08:51:24;101622.81;;;22.25;53.66
36222;BME280;22266;52.340;4.962;2023-06-26T08:53:59;101625.22;;;22.21;53.66
36222;BME280;22266;52.340;4.962;2023-06-26T08:56:36;101634.28;;;22.21;53.45
36222;BME280;22266;52.340;4.962;2023-06-26T08:59:04;101631.59;;;22.27;52.73
36222;BME280;22266;52.340;4.962;2023-06-26T09:01:32;101633.25;;;22.28;52.48
36222;BME280;22266;52.340;4.962;2023-06-26T09:03:59;101634.34;;;22.27;52.59
36222;BME280;22266;52.340;4.962;2023-06-26T09:06:25;101636.09;;;22.33;52.95
36222;BME280;22266;52.340;4.962;2023-06-26T09:08:52;101645.22;;;22.38;52.27
36222;BME280;22266;52.340;4.962;2023-06-26T09:11:18;101651.53;;;22.39;51.43
36222;BME280;22266;52.340;4.962;2023-06-26T09:13:45;101652.63;;;22.38;51.07
36222;BME280;22266;52.340;4.962;2023-06-26T09:16:14;101655.34;;;22.38;50.79
36222;BME280;22266;52.340;4.962;2023-06-26T09:18:41;101654.53;;;22.37;50.32
36222;BME280;22266;52.340;4.962;2023-06-26T09:21:09;101653.78;;;22.42;50.81
36222;BME280;22266;52.340;4.962;2023-06-26T09:23:37;101656.56;;;22.47;50.37
36222;BME280;22266;52.340;4.962;2023-06-26T09:26:06;101666.53;;;22.53;50.57
36222;BME280;22266;52.340;4.962;2023-06-26T09:28:33;101662.72;;;22.54;48.94
36222;BME280;22266;52.340;4.962;2023-06-26T09:31:02;101675.34;;;22.55;48.57
36222;BME280;22266;52.340;4.962;2023-06-26T09:33:38;101674.84;;;22.58;48.32
36222;BME280;22266;52.340;4.962;2023-06-26T09:36:06;101675.34;;;22.55;47.25
36222;BME280;22266;52.340;4.962;2023-06-26T09:38:34;101682.47;;;22.56;47.60
36222;BME280;22266;52.340;4.962;2023-06-26T09:41:03;101678.72;;;22.62;47.80
36222;BME280;22266;52.340;4.962;2023-06-26T09:43:29;101683.63;;;22.60;48.02
36222;BME280;22266;52.340;4.962;2023-06-26T09:45:58;101690.47;;;22.58;47.66
36222;BME280;22266;52.340;4.962;2023-06-26T09:48:25;101686.63;;;22.59;47.16
36222;BME280;22266;52.340;4.962;2023-06-26T09:50:53;101687.22;;;22.61;47.29
36222;BME280;22266;52.340;4.962;2023-06-26T09:53:36;101700.19;;;22.65;46.52
36222;BME280;22266;52.340;4.962;2023-06-26T09:56:06;101707.88;;;22.68;45.54
36222;BME280;22266;52.340;4.962;2023-06-26T09:58:33;101701.78;;;22.61;45.81
36222;BME280;22266;52.340;4.962;2023-06-26T10:01:02;101689.88;;;22.56;45.78
36222;BME280;22266;52.340;4.962;2023-06-26T10:03:29;101708.75;;;22.52;46.38
36222;BME280;22266;52.340;4.962;2023-06-26T10:05:57;101715.94;;;22.53;46.49
36222;BME280;22266;52.340;4.962;2023-06-26T10:08:24;101719.75;;;22.52;46.03
36222;BME280;22266;52.340;4.962;2023-06-26T10:10:51;101710.50;;;22.58;47.01
36222;BME280;22266;52.340;4.962;2023-06-26T10:13:22;101725.22;;;22.69;47.06
36222;BME280;22266;52.340;4.962;2023-06-26T10:15:50;101722.25;;;22.76;47.04
36222;BME280;22266;52.340;4.962;2023-06-26T10:18:18;101735.75;;;22.77;46.41
36222;BME280;22266;52.340;4.962;2023-06-26T10:20:47;101735.16;;;22.75;46.56
36222;BME280;22266;52.340;4.962;2023-06-26T10:23:15;101737.16;;;22.80;46.41
36222;BME280;22266;52.340;4.962;2023-06-26T10:25:46;101739.88;;;22.80;46.83
36222;BME280;22266;52.340;4.962;2023-06-26T10:28:15;101722.59;;;22.79;46.48
36222;BME280;22266;52.340;4.962;2023-06-26T10:30:44;101729.81;;;22.85;46.91
36222;BME280;22266;52.340;4.962;2023-06-26T10:33:12;101725.72;;;22.88;46.41
36222;BME280;22266;52.340;4.962;2023-06-26T10:35:45;101737.91;;;22.75;46.54
36222;BME280;22266;52.340;4.962;2023-06-26T10:38:12;101735.94;;;22.70;47.00
36222;BME280;22266;52.340;4.962;2023-06-26T10:40:44;101738.69;;;22.70;47.21
36222;BME280;22266;52.340;4.962;2023-06-26T10:43:15;101744.22;;;22.76;47.48
36222;BME280;22266;52.340;4.962;2023-06-26T10:45:48;101746.53;;;22.84;47.32
36222;BME280;22266;52.340;4.962;2023-06-26T10:48:19;101757.19;;;22.80;46.29
36222;BME280;22266;52.340;4.962;2023-06-26T10:50:49;101748.78;;;22.87;47.13
36222;BME280;22266;52.340;4.962;2023-06-26T10:55:55;101768.09;;;22.92;47.20
36222;BME280;22266;52.340;4.962;2023-06-26T11:03:41;101780.75;;;22.76;46.43
36222;BME280;22266;52.340;4.962;2023-06-26T11:06:12;101782.31;;;22.72;46.26
36222;BME280;22266;52.340;4.962;2023-06-26T11:08:54;101777.16;;;22.76;46.87
36222;BME280;22266;52.340;4.962;2023-06-26T11:14:21;101771.75;;;22.81;45.31
36222;BME280;22266;52.340;4.962;2023-06-26T11:16:48;101784.72;;;22.85;45.03
36222;BME280;22266;52.340;4.962;2023-06-26T11:19:19;101785.22;;;22.82;45.35
36222;BME280;22266;52.340;4.962;2023-06-26T11:21:46;101782.72;;;22.81;45.90
36222;BME280;22266;52.340;4.962;2023-06-26T11:24:13;101788.88;;;22.88;46.00
36222;BME280;22266;52.340;4.962;2023-06-26T11:26:41;101791.38;;;22.89;46.15
36222;BME280;22266;52.340;4.962;2023-06-26T11:29:09;101789.63;;;22.83;46.45
36222;BME280;22266;52.340;4.962;2023-06-26T11:31:38;101804.78;;;22.86;46.81
36222;BME280;22266;52.340;4.962;2023-06-26T11:34:12;101818.94;;;22.94;46.88
36222;BME280;22266;52.340;4.962;2023-06-26T11:36:40;101817.16;;;22.88;46.95
36222;BME280;22266;52.340;4.962;2023-06-26T11:39:09;101831.41;;;22.85;47.62
36222;BME280;22266;52.340;4.962;2023-06-26T11:41:37;101840.63;;;22.79;46.77
36222;BME280;22266;52.340;4.962;2023-06-26T11:44:05;101839.56;;;22.63;47.48
36222;BME280;22266;52.340;4.962;2023-06-26T11:46:33;101841.06;;;22.54;47.67
36222;BME280;22266;52.340;4.962;2023-06-26T11:49:03;101852.13;;;22.42;48.18
36222;BME280;22266;52.340;4.962;2023-06-26T11:51:30;101840.75;;;22.34;48.23
36222;BME280;22266;52.340;4.962;2023-06-26T11:53:57;101847.97;;;22.40;48.44
36222;BME280;22266;52.340;4.962;2023-06-26T11:56:24;101862.28;;;22.42;48.05
36222;BME280;22266;52.340;4.962;2023-06-26T11:59:06;101862.63;;;22.45;48.20
36222;BME280;22266;52.340;4.962;2023-06-26T12:01:42;101864.75;;;22.43;47.84
36222;BME280;22266;52.340;4.962;2023-06-26T12:04:13;101858.63;;;22.36;47.85
36222;BME280;22266;52.340;4.962;2023-06-26T12:06:43;101865.03;;;22.42;48.02
36222;BME280;22266;52.340;4.962;2023-06-26T12:09:12;101854.63;;;22.44;47.77
36222;BME280;22266;52.340;4.962;2023-06-26T12:11:41;101871.69;;;22.46;47.86
36222;BME280;22266;52.340;4.962;2023-06-26T12:14:09;101860.09;;;22.44;47.67
36222;BME280;22266;52.340;4.962;2023-06-26T12:16:37;101869.19;;;22.44;47.55
36222;BME280;22266;52.340;4.962;2023-06-26T12:19:06;101867.75;;;22.42;47.49
36222;BME280;22266;52.340;4.962;2023-06-26T12:24:04;101875.31;;;22.35;48.63
36222;BME280;22266;52.340;4.962;2023-06-26T12:26:31;101881.56;;;22.47;48.43
36222;BME280;22266;52.340;4.962;2023-06-26T12:29:07;101876.25;;;22.57;48.25
36222;BME280;22266;52.340;4.962;2023-06-26T12:31:35;101874.25;;;22.53;48.42
36222;BME280;22266;52.340;4.962;2023-06-26T12:34:09;101874.41;;;22.63;48.49
36222;BME280;22266;52.340;4.962;2023-06-26T12:36:41;101891.28;;;22.71;47.74
36222;BME280;22266;52.340;4.962;2023-06-26T12:39:09;101891.13;;;22.78;48.02
36222;BME280;22266;52.340;4.962;2023-06-26T12:41:47;101898.69;;;22.88;47.62
36222;BME280;22266;52.340;4.962;2023-06-26T12:44:18;101896.63;;;22.95;47.57
36222;BME280;22266;52.340;4.962;2023-06-26T12:46:47;101900.72;;;22.92;47.38
36222;BME280;22266;52.340;4.962;2023-06-26T12:49:15;101898.34;;;22.84;48.11
36222;BME280;22266;52.340;4.962;2023-06-26T12:51:56;101903.50;;;22.81;47.95
36222;BME280;22266;52.340;4.962;2023-06-26T12:54:22;101891.38;;;22.77;47.63
36222;BME280;22266;52.340;4.962;2023-06-26T12:56:49;101897.72;;;22.77;47.74
36222;BME280;22266;52.340;4.962;2023-06-26T12:59:15;101903.69;;;22.74;47.44
36222;BME280;22266;52.340;4.962;2023-06-26T13:01:42;101894.22;;;22.65;47.12
36222;BME280;22266;52.340;4.962;2023-06-26T13:04:08;101902.63;;;22.58;47.04
36222;BME280;22266;52.340;4.962;2023-06-26T13:06:36;101890.88;;;22.46;47.55
36222;BME280;22266;52.340;4.962;2023-06-26T13:09:02;101898.09;;;22.52;47.72
36222;BME280;22266;52.340;4.962;2023-06-26T13:11:32;101903.09;;;22.55;47.30